sensor_id;sensor_type;location;lat;lon;timestamp;pressure;altitude;pressure_sealevel;temperature
66180;BMP280;52986;44.028;20.466;2023-06-26T00:00:29;98064.03;;;20.59
66180;BMP280;52986;44.028;20.466;2023-06-26T00:02:55;98066.94;;;20.67
66180;BMP280;52986;44.028;20.466;2023-06-26T00:05:20;98061.22;;;20.70
66180;BMP280;52986;44.028;20.466;2023-06-26T00:07:46;98065.41;;;20.71
66180;BMP280;52986;44.028;20.466;2023-06-26T00:10:11;98056.78;;;20.67
66180;BMP280;52986;44.028;20.466;2023-06-26T00:12:36;98060.28;;;20.62
66180;BMP280;52986;44.028;20.466;2023-06-26T00:15:02;98055.56;;;20.63
66180;BMP280;52986;44.028;20.466;2023-06-26T00:17:27;98053.31;;;20.67
66180;BMP280;52986;44.028;20.466;2023-06-26T00:19:53;98052.06;;;20.68
66180;BMP280;52986;44.028;20.466;2023-06-26T00:22:19;98054.63;;;20.60
66180;BMP280;52986;44.028;20.466;2023-06-26T00:24:44;98050.69;;;20.55
66180;BMP280;52986;44.028;20.466;2023-06-26T00:27:10;98053.09;;;20.65
66180;BMP280;52986;44.028;20.466;2023-06-26T00:29:35;98058.09;;;20.61
66180;BMP280;52986;44.028;20.466;2023-06-26T00:32:00;98053.41;;;20.55
66180;BMP280;52986;44.028;20.466;2023-06-26T00:34:26;98051.19;;;20.54
66180;BMP280;52986;44.028;20.466;2023-06-26T00:36:51;98055.22;;;20.47
66180;BMP280;52986;44.028;20.466;2023-06-26T00:39:17;98055.50;;;20.44
66180;BMP280;52986;44.028;20.466;2023-06-26T00:41:42;98053.03;;;20.40
66180;BMP280;52986;44.028;20.466;2023-06-26T00:44:08;98045.13;;;20.37
66180;BMP280;52986;44.028;20.466;2023-06-26T00:46:34;98049.16;;;20.30
66180;BMP280;52986;44.028;20.466;2023-06-26T00:49:02;98047.94;;;20.26
66180;BMP280;52986;44.028;20.466;2023-06-26T00:51:30;98048.72;;;20.20
66180;BMP280;52986;44.028;20.466;2023-06-26T00:53:56;98051.44;;;20.20
66180;BMP280;52986;44.028;20.466;2023-06-26T00:56:23;98050.22;;;20.21
66180;BMP280;52986;44.028;20.466;2023-06-26T00:58:48;98053.16;;;20.23
66180;BMP280;52986;44.028;20.466;2023-06-26T01:01:14;98047.69;;;20.23
66180;BMP280;52986;44.028;20.466;2023-06-26T01:03:43;98046.72;;;20.21
66180;BMP280;52986;44.028;20.466;2023-06-26T01:06:11;98050.22;;;20.21
66180;BMP280;52986;44.028;20.466;2023-06-26T01:08:37;98039.34;;;20.16
66180;BMP280;52986;44.028;20.466;2023-06-26T01:11:03;98039.16;;;20.08
66180;BMP280;52986;44.028;20.466;2023-06-26T01:13:29;98044.88;;;20.05
66180;BMP280;52986;44.028;20.466;2023-06-26T01:15:55;98038.16;;;20.11
66180;BMP280;52986;44.028;20.466;2023-06-26T01:18:22;98042.59;;;20.09
66180;BMP280;52986;44.028;20.466;2023-06-26T01:20:48;98039.63;;;20.12
66180;BMP280;52986;44.028;20.466;2023-06-26T01:28:24;98031.72;;;20.09
66180;BMP280;52986;44.028;20.466;2023-06-26T01:30:51;98026.75;;;20.13
66180;BMP280;52986;44.028;20.466;2023-06-26T01:33:17;98024.03;;;20.13
66180;BMP280;52986;44.028;20.466;2023-06-26T01:35:42;98031.94;;;20.16
66180;BMP280;52986;44.028;20.466;2023-06-26T01:38:19;98019.53;;;20.15
66180;BMP280;52986;44.028;20.466;2023-06-26T01:40:45;98034.38;;;20.14
66180;BMP280;52986;44.028;20.466;2023-06-26T01:43:31;98028.47;;;20.16
66180;BMP280;52986;44.028;20.466;2023-06-26T01:46:16;98024.78;;;20.13
66180;BMP280;52986;44.028;20.466;2023-06-26T01:52:14;98027.50;;;20.13
66180;BMP280;52986;44.028;20.466;2023-06-26T01:55:04;98019.09;;;20.11
66180;BMP280;52986;44.028;20.466;2023-06-26T01:57:31;98016.91;;;20.10
66180;BMP280;52986;44.028;20.466;2023-06-26T01:59:57;98013.66;;;20.11
66180;BMP280;52986;44.028;20.466;2023-06-26T02:02:24;98016.16;;;20.09
66180;BMP280;52986;44.028;20.466;2023-06-26T02:04:51;98021.81;;;20.11
66180;BMP280;52986;44.028;20.466;2023-06-26T02:07:16;98011.72;;;20.06
66180;BMP280;52986;44.028;20.466;2023-06-26T02:09:42;98018.66;;;20.02
66180;BMP280;52986;44.028;20.466;2023-06-26T02:12:08;98020.09;;;20.08
66180;BMP280;52986;44.028;20.466;2023-06-26T02:14:34;98020.34;;;20.10
66180;BMP280;52986;44.028;20.466;2023-06-26T02:16:59;98013.66;;;20.11
66180;BMP280;52986;44.028;20.466;2023-06-26T02:19:25;98017.69;;;19.99
66180;BMP280;52986;44.028;20.466;2023-06-26T02:21:53;98012.06;;;19.92
66180;BMP280;52986;44.028;20.466;2023-06-26T02:24:18;98018.28;;;19.86
66180;BMP280;52986;44.028;20.466;2023-06-26T02:26:44;98016.75;;;19.91
66180;BMP280;52986;44.028;20.466;2023-06-26T02:29:09;98021.44;;;19.96
66180;BMP280;52986;44.028;20.466;2023-06-26T02:31:34;98008.50;;;20.02
66180;BMP280;52986;44.028;20.466;2023-06-26T02:34:00;98016.16;;;20.09
66180;BMP280;52986;44.028;20.466;2023-06-26T02:36:25;98010.69;;;20.09
66180;BMP280;52986;44.028;20.466;2023-06-26T02:38:51;98010.69;;;20.09
66180;BMP280;52986;44.028;20.466;2023-06-26T02:41:16;98004.53;;;20.09
66180;BMP280;52986;44.028;20.466;2023-06-26T02:43:41;98004.28;;;20.07
66180;BMP280;52986;44.028;20.466;2023-06-26T02:46:07;98010.19;;;20.16
66180;BMP280;52986;44.028;20.466;2023-06-26T02:48:32;98008.22;;;20.11
66180;BMP280;52986;44.028;20.466;2023-06-26T02:50:58;98011.19;;;20.13
66180;BMP280;52986;44.028;20.466;2023-06-26T02:53:24;98015.69;;;20.05
66180;BMP280;52986;44.028;20.466;2023-06-26T02:55:49;98015.41;;;20.09
66180;BMP280;52986;44.028;20.466;2023-06-26T02:58:15;98017.16;;;20.06
66180;BMP280;52986;44.028;20.466;2023-06-26T03:00:40;98020.66;;;20.01
66180;BMP280;52986;44.028;20.466;2023-06-26T03:03:07;98024.44;;;19.93
66180;BMP280;52986;44.028;20.466;2023-06-26T03:05:33;98027.38;;;19.95
66180;BMP280;52986;44.028;20.466;2023-06-26T03:07:58;98024.63;;;20.00
66180;BMP280;52986;44.028;20.466;2023-06-26T03:10:23;98030.06;;;20.00
66180;BMP280;52986;44.028;20.466;2023-06-26T03:12:49;98029.50;;;20.07
66180;BMP280;52986;44.028;20.466;2023-06-26T03:15:14;98021.88;;;20.06
66180;BMP280;52986;44.028;20.466;2023-06-26T03:17:40;98029.28;;;20.05
66180;BMP280;52986;44.028;20.466;2023-06-26T03:20:06;98030.72;;;20.12
66180;BMP280;52986;44.028;20.466;2023-06-26T03:22:33;98027.72;;;20.15
66180;BMP280;52986;44.028;20.466;2023-06-26T03:24:58;98023.81;;;20.11
66180;BMP280;52986;44.028;20.466;2023-06-26T03:27:24;98031.22;;;20.10
66180;BMP280;52986;44.028;20.466;2023-06-26T03:29:49;98035.44;;;20.11
66180;BMP280;52986;44.028;20.466;2023-06-26T03:32:15;98033.88;;;20.21
66180;BMP280;52986;44.028;20.466;2023-06-26T03:34:41;98025.44;;;20.25
66180;BMP280;52986;44.028;20.466;2023-06-26T03:37:07;98017.28;;;20.25
66180;BMP280;52986;44.028;20.466;2023-06-26T03:39:32;98026.66;;;20.30
66180;BMP280;52986;44.028;20.466;2023-06-26T03:41:58;98032.31;;;20.32
66180;BMP280;52986;44.028;20.466;2023-06-26T03:44:26;98021.94;;;20.30
66180;BMP280;52986;44.028;20.466;2023-06-26T03:46:51;98024.66;;;20.30
66180;BMP280;52986;44.028;20.466;2023-06-26T03:49:17;98028.59;;;20.35
66180;BMP280;52986;44.028;20.466;2023-06-26T03:51:43;98025.31;;;20.42
66180;BMP280;52986;44.028;20.466;2023-06-26T03:54:09;98032.56;;;20.34
66180;BMP280;52986;44.028;20.466;2023-06-26T03:56:34;98027.88;;;20.29
66180;BMP280;52986;44.028;20.466;2023-06-26T03:58:59;98037.53;;;20.30
66180;BMP280;52986;44.028;20.466;2023-06-26T04:01:25;98030.59;;;20.34
66180;BMP280;52986;44.028;20.466;2023-06-26T04:03:50;98030.31;;;20.32
66180;BMP280;52986;44.028;20.466;2023-06-26T04:06:16;98026.84;;;20.32
66180;BMP280;52986;44.028;20.466;2023-06-26T04:08:41;98030.78;;;20.36
66180;BMP280;52986;44.028;20.466;2023-06-26T04:11:07;98029.53;;;20.37
66180;BMP280;52986;44.028;20.466;2023-06-26T04:13:32;98030.47;;;20.45
66180;BMP280;52986;44.028;20.466;2023-06-26T04:15:57;98038.34;;;20.49
66180;BMP280;52986;44.028;20.466;2023-06-26T04:18:23;98037.06;;;20.55
66180;BMP280;52986;44.028;20.466;2023-06-26T04:21:24;98046.72;;;20.56
66180;BMP280;52986;44.028;20.466;2023-06-26T04:23:50;98045.72;;;20.60
66180;BMP280;52986;44.028;20.466;2023-06-26T04:26:16;98044.09;;;20.70
66180;BMP280;52986;44.028;20.466;2023-06-26T04:28:42;98045.78;;;20.78
66180;BMP280;52986;44.028;20.466;2023-06-26T04:31:07;98052.66;;;20.85
66180;BMP280;52986;44.028;20.466;2023-06-26T04:33:34;98056.59;;;20.89
66180;BMP280;52986;44.028;20.466;2023-06-26T04:36:02;98054.53;;;20.96
66180;BMP280;52986;44.028;20.466;2023-06-26T04:38:28;98056.97;;;20.99
66180;BMP280;52986;44.028;20.466;2023-06-26T04:40:54;98061.94;;;21.01
66180;BMP280;52986;44.028;20.466;2023-06-26T04:43:19;98060.88;;;21.04
66180;BMP280;52986;44.028;20.466;2023-06-26T04:45:44;98054.59;;;21.14
66180;BMP280;52986;44.028;20.466;2023-06-26T04:48:10;98061.41;;;21.26
66180;BMP280;52986;44.028;20.466;2023-06-26T04:50:35;98062.22;;;21.40
66180;BMP280;52986;44.028;20.466;2023-06-26T04:53:00;98061.38;;;21.51
66180;BMP280;52986;44.028;20.466;2023-06-26T04:55:26;98057.78;;;21.61
66180;BMP280;52986;44.028;20.466;2023-06-26T04:57:52;98072.66;;;21.60
66180;BMP280;52986;44.028;20.466;2023-06-26T05:00:17;98067.88;;;21.67
66180;BMP280;52986;44.028;20.466;2023-06-26T05:02:43;98065.94;;;21.80
66180;BMP280;52986;44.028;20.466;2023-06-26T05:05:08;98070.22;;;21.94
66180;BMP280;52986;44.028;20.466;2023-06-26T05:07:34;98073.31;;;22.04
66180;BMP280;52986;44.028;20.466;2023-06-26T05:09:59;98074.75;;;22.24
66180;BMP280;52986;44.028;20.466;2023-06-26T05:12:25;98075.13;;;22.47
66180;BMP280;52986;44.028;20.466;2023-06-26T05:14:50;98080.47;;;22.71
66180;BMP280;52986;44.028;20.466;2023-06-26T05:17:15;98077.22;;;22.99
66180;BMP280;52986;44.028;20.466;2023-06-26T05:19:41;98073.44;;;23.28
66180;BMP280;52986;44.028;20.466;2023-06-26T05:22:07;98072.91;;;23.43
66180;BMP280;52986;44.028;20.466;2023-06-26T05:24:37;98079.50;;;23.34
66180;BMP280;52986;44.028;20.466;2023-06-26T05:27:03;98070.81;;;23.36
66180;BMP280;52986;44.028;20.466;2023-06-26T05:29:30;98082.97;;;23.22
66180;BMP280;52986;44.028;20.466;2023-06-26T05:31:56;98073.13;;;23.05
66180;BMP280;52986;44.028;20.466;2023-06-26T05:34:25;98075.22;;;22.86
66180;BMP280;52986;44.028;20.466;2023-06-26T05:36:56;98075.63;;;22.64
66180;BMP280;52986;44.028;20.466;2023-06-26T05:39:22;98072.63;;;22.62
66180;BMP280;52986;44.028;20.466;2023-06-26T05:41:48;98079.56;;;22.63
66180;BMP280;52986;44.028;20.466;2023-06-26T05:44:13;98081.81;;;22.64
66180;BMP280;52986;44.028;20.466;2023-06-26T05:46:39;98082.56;;;22.65
66180;BMP280;52986;44.028;20.466;2023-06-26T05:49:04;98091.47;;;22.65
66180;BMP280;52986;44.028;20.466;2023-06-26T05:51:30;98084.63;;;22.59
66180;BMP280;52986;44.028;20.466;2023-06-26T05:53:55;98093.44;;;22.52
66180;BMP280;52986;44.028;20.466;2023-06-26T05:56:21;98086.09;;;22.60
66180;BMP280;52986;44.028;20.466;2023-06-26T05:58:47;98085.66;;;22.69
66180;BMP280;52986;44.028;20.466;2023-06-26T06:01:13;98092.75;;;22.77
66180;BMP280;52986;44.028;20.466;2023-06-26T06:03:39;98091.59;;;22.86
66180;BMP280;52986;44.028;20.466;2023-06-26T06:06:05;98090.66;;;22.97
66180;BMP280;52986;44.028;20.466;2023-06-26T06:08:31;98091.63;;;23.12
66180;BMP280;52986;44.028;20.466;2023-06-26T06:10:56;98090.47;;;23.21
66180;BMP280;52986;44.028;20.466;2023-06-26T06:13:22;98093.00;;;23.32
66180;BMP280;52986;44.028;20.466;2023-06-26T06:15:47;98101.50;;;23.42
66180;BMP280;52986;44.028;20.466;2023-06-26T06:18:13;98090.22;;;23.45
66180;BMP280;52986;44.028;20.466;2023-06-26T06:20:38;98095.16;;;23.60
66180;BMP280;52986;44.028;20.466;2023-06-26T06:23:03;98093.03;;;23.79
66180;BMP280;52986;44.028;20.466;2023-06-26T06:25:29;98093.88;;;23.95
66180;BMP280;52986;44.028;20.466;2023-06-26T06:27:54;98095.31;;;24.09
66180;BMP280;52986;44.028;20.466;2023-06-26T06:30:20;98091.38;;;24.18
66180;BMP280;52986;44.028;20.466;2023-06-26T06:32:45;98092.00;;;24.45
66180;BMP280;52986;44.028;20.466;2023-06-26T06:35:16;98089.94;;;24.87
66180;BMP280;52986;44.028;20.466;2023-06-26T06:37:41;98096.44;;;25.40
66180;BMP280;52986;44.028;20.466;2023-06-26T06:40:09;98093.25;;;25.80
66180;BMP280;52986;44.028;20.466;2023-06-26T06:42:35;98091.66;;;26.23
66180;BMP280;52986;44.028;20.466;2023-06-26T06:45:04;98087.25;;;26.12
66180;BMP280;52986;44.028;20.466;2023-06-26T06:47:32;98090.00;;;26.42
66180;BMP280;52986;44.028;20.466;2023-06-26T06:49:57;98089.63;;;27.31
66180;BMP280;52986;44.028;20.466;2023-06-26T06:52:22;98082.63;;;28.37
66180;BMP280;52986;44.028;20.466;2023-06-26T06:54:56;98082.13;;;29.17
66180;BMP280;52986;44.028;20.466;2023-06-26T06:57:24;98086.38;;;29.45
66180;BMP280;52986;44.028;20.466;2023-06-26T06:59:49;98080.75;;;29.62
66180;BMP280;52986;44.028;20.466;2023-06-26T07:02:18;98075.19;;;29.89
66180;BMP280;52986;44.028;20.466;2023-06-26T07:04:44;98076.22;;;29.84
66180;BMP280;52986;44.028;20.466;2023-06-26T07:07:09;98087.34;;;29.67
66180;BMP280;52986;44.028;20.466;2023-06-26T07:09:36;98077.03;;;29.77
66180;BMP280;52986;44.028;20.466;2023-06-26T07:12:01;98085.50;;;28.98
66180;BMP280;52986;44.028;20.466;2023-06-26T07:14:28;98080.41;;;29.49
66180;BMP280;52986;44.028;20.466;2023-06-26T07:16:53;98077.59;;;29.39
66180;BMP280;52986;44.028;20.466;2023-06-26T07:19:18;98074.75;;;29.83
66180;BMP280;52986;44.028;20.466;2023-06-26T07:21:44;98079.06;;;30.32
66180;BMP280;52986;44.028;20.466;2023-06-26T07:24:11;98070.78;;;30.51
66180;BMP280;52986;44.028;20.466;2023-06-26T07:26:36;98075.72;;;30.82
66180;BMP280;52986;44.028;20.466;2023-06-26T07:29:02;98071.66;;;30.83
66180;BMP280;52986;44.028;20.466;2023-06-26T07:31:27;98082.50;;;31.29
66180;BMP280;52986;44.028;20.466;2023-06-26T07:33:53;98068.91;;;30.54
66180;BMP280;52986;44.028;20.466;2023-06-26T07:36:18;98091.31;;;30.96
66180;BMP280;52986;44.028;20.466;2023-06-26T07:38:44;98088.56;;;31.77
66180;BMP280;52986;44.028;20.466;2023-06-26T07:41:09;98086.88;;;33.02
66180;BMP280;52986;44.028;20.466;2023-06-26T07:43:35;98084.38;;;32.19
66180;BMP280;52986;44.028;20.466;2023-06-26T07:46:00;98087.38;;;32.65
66180;BMP280;52986;44.028;20.466;2023-06-26T07:48:25;98085.22;;;33.43
66180;BMP280;52986;44.028;20.466;2023-06-26T07:50:51;98089.06;;;33.15
66180;BMP280;52986;44.028;20.466;2023-06-26T07:53:16;98090.41;;;33.60
66180;BMP280;52986;44.028;20.466;2023-06-26T07:55:42;98095.09;;;33.93
66180;BMP280;52986;44.028;20.466;2023-06-26T07:58:08;98092.19;;;34.39
66180;BMP280;52986;44.028;20.466;2023-06-26T08:00:33;98093.09;;;34.94
66180;BMP280;52986;44.028;20.466;2023-06-26T08:02:59;98068.50;;;33.90
66180;BMP280;52986;44.028;20.466;2023-06-26T08:05:24;98103.13;;;33.52
66180;BMP280;52986;44.028;20.466;2023-06-26T08:07:50;98091.91;;;34.10
66180;BMP280;52986;44.028;20.466;2023-06-26T08:10:15;98101.25;;;34.65
66180;BMP280;52986;44.028;20.466;2023-06-26T08:12:41;98080.38;;;34.52
66180;BMP280;52986;44.028;20.466;2023-06-26T08:15:08;98106.13;;;33.21
66180;BMP280;52986;44.028;20.466;2023-06-26T08:17:35;98108.81;;;35.15
66180;BMP280;52986;44.028;20.466;2023-06-26T08:20:01;98108.34;;;35.59
66180;BMP280;52986;44.028;20.466;2023-06-26T08:22:27;98117.41;;;35.74
66180;BMP280;52986;44.028;20.466;2023-06-26T08:24:52;98118.69;;;36.57
66180;BMP280;52986;44.028;20.466;2023-06-26T08:27:17;98114.81;;;37.26
66180;BMP280;52986;44.028;20.466;2023-06-26T08:29:43;98104.31;;;37.58
66180;BMP280;52986;44.028;20.466;2023-06-26T08:32:08;98104.28;;;38.09
66180;BMP280;52986;44.028;20.466;2023-06-26T08:34:34;98103.94;;;37.01
66180;BMP280;52986;44.028;20.466;2023-06-26T08:36:59;98103.59;;;38.09
66180;BMP280;52986;44.028;20.466;2023-06-26T08:39:24;98101.88;;;38.37
66180;BMP280;52986;44.028;20.466;2023-06-26T08:41:50;98110.13;;;38.33
66180;BMP280;52986;44.028;20.466;2023-06-26T08:44:16;98098.91;;;38.50
66180;BMP280;52986;44.028;20.466;2023-06-26T08:46:43;98101.22;;;38.38
66180;BMP280;52986;44.028;20.466;2023-06-26T08:49:14;98106.97;;;35.88
66180;BMP280;52986;44.028;20.466;2023-06-26T08:51:46;98109.31;;;36.07
66180;BMP280;52986;44.028;20.466;2023-06-26T08:54:15;98110.56;;;36.04
66180;BMP280;52986;44.028;20.466;2023-06-26T08:56:44;98107.94;;;35.65
66180;BMP280;52986;44.028;20.466;2023-06-26T08:59:11;98114.50;;;36.58
66180;BMP280;52986;44.028;20.466;2023-06-26T09:01:40;98102.03;;;35.45
66180;BMP280;52986;44.028;20.466;2023-06-26T09:04:05;98071.91;;;34.76
66180;BMP280;52986;44.028;20.466;2023-06-26T09:06:32;98083.03;;;35.55
66180;BMP280;52986;44.028;20.466;2023-06-26T09:08:57;98097.75;;;35.99
66180;BMP280;52986;44.028;20.466;2023-06-26T09:11:22;98102.72;;;36.30
66180;BMP280;52986;44.028;20.466;2023-06-26T09:13:48;98092.13;;;36.87
66180;BMP280;52986;44.028;20.466;2023-06-26T09:16:14;98101.13;;;36.11
66180;BMP280;52986;44.028;20.466;2023-06-26T09:18:44;98074.34;;;35.49
66180;BMP280;52986;44.028;20.466;2023-06-26T09:21:11;98071.28;;;32.52
66180;BMP280;52986;44.028;20.466;2023-06-26T09:23:36;98088.03;;;34.15
66180;BMP280;52986;44.028;20.466;2023-06-26T09:26:05;98052.09;;;33.47
66180;BMP280;52986;44.028;20.466;2023-06-26T09:28:32;98073.34;;;32.09
66180;BMP280;52986;44.028;20.466;2023-06-26T09:31:05;98102.41;;;31.46
66180;BMP280;52986;44.028;20.466;2023-06-26T09:33:35;98092.44;;;33.02
66180;BMP280;52986;44.028;20.466;2023-06-26T09:36:05;98074.53;;;32.27
66180;BMP280;52986;44.028;20.466;2023-06-26T09:38:30;98091.16;;;32.81
66180;BMP280;52986;44.028;20.466;2023-06-26T09:40:55;98090.16;;;34.53
66180;BMP280;52986;44.028;20.466;2023-06-26T09:43:21;98094.09;;;36.10
66180;BMP280;52986;44.028;20.466;2023-06-26T09:45:46;98086.16;;;36.04
66180;BMP280;52986;44.028;20.466;2023-06-26T09:48:13;98096.06;;;34.98
66180;BMP280;52986;44.028;20.466;2023-06-26T09:50:41;98075.56;;;33.67
66180;BMP280;52986;44.028;20.466;2023-06-26T09:53:11;98097.97;;;34.68
66180;BMP280;52986;44.028;20.466;2023-06-26T09:55:39;98099.13;;;36.27
66180;BMP280;52986;44.028;20.466;2023-06-26T09:58:06;98081.97;;;35.90
66180;BMP280;52986;44.028;20.466;2023-06-26T10:00:31;98097.56;;;34.99
66180;BMP280;52986;44.028;20.466;2023-06-26T10:03:00;98101.94;;;35.71
66180;BMP280;52986;44.028;20.466;2023-06-26T10:05:26;98081.72;;;36.29
66180;BMP280;52986;44.028;20.466;2023-06-26T10:07:52;98061.03;;;35.34
66180;BMP280;52986;44.028;20.466;2023-06-26T10:10:19;98093.31;;;33.51
66180;BMP280;52986;44.028;20.466;2023-06-26T10:12:48;98082.56;;;33.45
66180;BMP280;52986;44.028;20.466;2023-06-26T10:15:14;98097.81;;;33.67
66180;BMP280;52986;44.028;20.466;2023-06-26T10:17:43;98083.25;;;34.54
66180;BMP280;52986;44.028;20.466;2023-06-26T10:20:09;98088.09;;;35.32
66180;BMP280;52986;44.028;20.466;2023-06-26T10:22:39;98071.19;;;34.75
66180;BMP280;52986;44.028;20.466;2023-06-26T10:25:06;98084.25;;;35.52
66180;BMP280;52986;44.028;20.466;2023-06-26T10:27:36;98057.00;;;35.10
66180;BMP280;52986;44.028;20.466;2023-06-26T10:30:05;98062.97;;;33.55
66180;BMP280;52986;44.028;20.466;2023-06-26T10:32:32;98088.00;;;33.20
66180;BMP280;52986;44.028;20.466;2023-06-26T10:34:58;98076.69;;;33.99
66180;BMP280;52986;44.028;20.466;2023-06-26T10:37:47;98078.91;;;34.77
66180;BMP280;52986;44.028;20.466;2023-06-26T10:40:14;98074.34;;;35.22
66180;BMP280;52986;44.028;20.466;2023-06-26T10:42:40;98044.22;;;35.05
66180;BMP280;52986;44.028;20.466;2023-06-26T10:45:19;98053.34;;;33.21
66180;BMP280;52986;44.028;20.466;2023-06-26T10:47:46;98051.09;;;31.97
66180;BMP280;52986;44.028;20.466;2023-06-26T10:50:29;98075.38;;;32.84
66180;BMP280;52986;44.028;20.466;2023-06-26T10:53:10;98064.56;;;33.46
66180;BMP280;52986;44.028;20.466;2023-06-26T10:55:36;98067.84;;;34.40
66180;BMP280;52986;44.028;20.466;2023-06-26T10:58:02;98064.16;;;35.54
66180;BMP280;52986;44.028;20.466;2023-06-26T11:00:28;98043.19;;;35.26
66180;BMP280;52986;44.028;20.466;2023-06-26T11:02:53;98030.44;;;34.82
66180;BMP280;52986;44.028;20.466;2023-06-26T11:05:26;98035.22;;;33.20
66180;BMP280;52986;44.028;20.466;2023-06-26T11:08:09;98066.56;;;33.11
66180;BMP280;52986;44.028;20.466;2023-06-26T11:10:54;98061.00;;;33.92
66180;BMP280;52986;44.028;20.466;2023-06-26T11:13:21;98050.44;;;34.39
66180;BMP280;52986;44.028;20.466;2023-06-26T11:15:47;98048.75;;;34.34
66180;BMP280;52986;44.028;20.466;2023-06-26T11:18:13;98050.75;;;34.20
66180;BMP280;52986;44.028;20.466;2023-06-26T11:20:39;98051.06;;;34.63
66180;BMP280;52986;44.028;20.466;2023-06-26T11:23:05;98042.84;;;34.53
66180;BMP280;52986;44.028;20.466;2023-06-26T11:25:38;98040.13;;;34.16
66180;BMP280;52986;44.028;20.466;2023-06-26T11:28:05;98041.03;;;34.72
66180;BMP280;52986;44.028;20.466;2023-06-26T11:30:31;98044.75;;;34.62
66180;BMP280;52986;44.028;20.466;2023-06-26T11:33:07;98024.94;;;33.94
66180;BMP280;52986;44.028;20.466;2023-06-26T11:35:33;98041.94;;;32.94
66180;BMP280;52986;44.028;20.466;2023-06-26T11:38:00;98048.03;;;33.37
66180;BMP280;52986;44.028;20.466;2023-06-26T11:40:29;98040.13;;;33.80
66180;BMP280;52986;44.028;20.466;2023-06-26T11:43:00;98036.91;;;33.25
66180;BMP280;52986;44.028;20.466;2023-06-26T11:45:30;98017.81;;;33.19
66180;BMP280;52986;44.028;20.466;2023-06-26T11:47:56;98029.56;;;31.86
66180;BMP280;52986;44.028;20.466;2023-06-26T11:50:22;98024.31;;;31.38
66180;BMP280;52986;44.028;20.466;2023-06-26T11:52:55;98035.56;;;30.71
66180;BMP280;52986;44.028;20.466;2023-06-26T11:55:21;98022.63;;;30.35
66180;BMP280;52986;44.028;20.466;2023-06-26T11:57:53;98035.22;;;30.96
66180;BMP280;52986;44.028;20.466;2023-06-26T12:00:18;98028.81;;;31.65
66180;BMP280;52986;44.028;20.466;2023-06-26T12:02:45;98023.00;;;31.30
66180;BMP280;52986;44.028;20.466;2023-06-26T12:05:12;98019.34;;;31.89
66180;BMP280;52986;44.028;20.466;2023-06-26T12:07:38;98016.16;;;31.31
66180;BMP280;52986;44.028;20.466;2023-06-26T12:10:05;98015.94;;;31.48
66180;BMP280;52986;44.028;20.466;2023-06-26T12:12:31;98017.47;;;30.80
66180;BMP280;52986;44.028;20.466;2023-06-26T12:14:58;98025.06;;;30.69
66180;BMP280;52986;44.028;20.466;2023-06-26T12:17:25;98015.47;;;31.21
66180;BMP280;52986;44.028;20.466;2023-06-26T12:19:50;98008.81;;;31.04
66180;BMP280;52986;44.028;20.466;2023-06-26T12:22:17;98018.69;;;31.17
66180;BMP280;52986;44.028;20.466;2023-06-26T12:24:44;98024.16;;;31.36
66180;BMP280;52986;44.028;20.466;2023-06-26T12:27:12;98009.56;;;31.36
66180;BMP280;52986;44.028;20.466;2023-06-26T12:29:39;98009.84;;;31.40
66180;BMP280;52986;44.028;20.466;2023-06-26T12:32:09;98015.00;;;31.24
66180;BMP280;52986;44.028;20.466;2023-06-26T12:34:37;98004.38;;;30.70
66180;BMP280;52986;44.028;20.466;2023-06-26T12:37:10;98007.88;;;30.81
66180;BMP280;52986;44.028;20.466;2023-06-26T12:39:55;98007.88;;;30.81
66180;BMP280;52986;44.028;20.466;2023-06-26T12:42:25;98011.63;;;30.95
66180;BMP280;52986;44.028;20.466;2023-06-26T12:44:52;98025.66;;;30.78
66180;BMP280;52986;44.028;20.466;2023-06-26T12:47:19;98013.88;;;30.39
66180;BMP280;52986;44.028;20.466;2023-06-26T12:49:50;98010.03;;;29.86
66180;BMP280;52986;44.028;20.466;2023-06-26T12:52:17;98014.00;;;30.02
66180;BMP280;52986;44.028;20.466;2023-06-26T12:54:45;98004.38;;;29.84
66180;BMP280;52986;44.028;20.466;2023-06-26T12:57:12;98013.03;;;29.71
66180;BMP280;52986;44.028;20.466;2023-06-26T12:59:39;98016.25;;;29.77
66180;BMP280;52986;44.028;20.466;2023-06-26T13:02:05;98015.72;;;29.88
66180;BMP280;52986;44.028;20.466;2023-06-26T13:04:31;98016.22;;;30.33
66180;BMP280;52986;44.028;20.466;2023-06-26T13:06:57;98013.56;;;30.54
66180;BMP280;52986;44.028;20.466;2023-06-26T13:09:23;98009.19;;;30.51
66180;BMP280;52986;44.028;20.466;2023-06-26T13:11:50;98014.59;;;30.78
66180;BMP280;52986;44.028;20.466;2023-06-26T13:14:16;98011.72;;;31.06
66180;BMP280;52986;44.028;20.466;2023-06-26T13:16:41;98009.63;;;31.26
66180;BMP280;52986;44.028;20.466;2023-06-26T13:19:07;98011.75;;;31.37
66180;BMP280;52986;44.028;20.466;2023-06-26T13:21:33;98010.47;;;30.88
66180;BMP280;52986;44.028;20.466;2023-06-26T13:23:59;98015.31;;;30.78
66180;BMP280;52986;44.028;20.466;2023-06-26T13:26:25;98010.38;;;30.38
66180;BMP280;52986;44.028;20.466;2023-06-26T13:28:51;98007.03;;;30.40
66180;BMP280;52986;44.028;20.466;2023-06-26T13:31:17;98003.41;;;30.27
66180;BMP280;52986;44.028;20.466;2023-06-26T13:33:43;98001.38;;;30.18
66180;BMP280;52986;44.028;20.466;2023-06-26T13:36:09;97998.84;;;30.03
66180;BMP280;52986;44.028;20.466;2023-06-26T13:38:35;97998.41;;;29.97
66180;BMP280;52986;44.028;20.466;2023-06-26T13:41:01;98000.31;;;30.04
66180;BMP280;52986;44.028;20.466;2023-06-26T13:43:27;97994.66;;;30.02
66180;BMP280;52986;44.028;20.466;2023-06-26T13:45:53;97986.91;;;29.91
66180;BMP280;52986;44.028;20.466;2023-06-26T13:48:19;97992.41;;;29.72
66180;BMP280;52986;44.028;20.466;2023-06-26T13:50:46;97997.00;;;29.50
66180;BMP280;52986;44.028;20.466;2023-06-26T13:53:11;97990.56;;;29.38
66180;BMP280;52986;44.028;20.466;2023-06-26T13:55:37;97986.09;;;29.16
66180;BMP280;52986;44.028;20.466;2023-06-26T13:58:04;97979.00;;;28.95
66180;BMP280;52986;44.028;20.466;2023-06-26T14:00:31;97978.53;;;28.89
66180;BMP280;52986;44.028;20.466;2023-06-26T14:02:56;97982.84;;;28.83